sensor_id;sensor_type;location;lat;lon;timestamp;P1;durP1;ratioP1;P2;durP2;ratioP2
64457;SDS011;58438;51.200;7.252;2022-11-20T00:01:03;22.00;;;9.68;;
64457;SDS011;58438;51.200;7.252;2022-11-20T00:03:51;20.42;;;9.60;;
64457;SDS011;58438;51.200;7.252;2022-11-20T00:06:38;18.45;;;9.98;;
64457;SDS011;58438;51.200;7.252;2022-11-20T00:09:26;18.63;;;9.15;;
64457;SDS011;58438;51.200;7.252;2022-11-20T00:12:13;18.30;;;8.20;;
64457;SDS011;58438;51.200;7.252;2022-11-20T00:15:02;20.55;;;9.50;;
64457;SDS011;58438;51.200;7.252;2022-11-20T00:17:49;22.38;;;9.00;;
64457;SDS011;58438;51.200;7.252;2022-11-20T00:20:36;17.20;;;8.30;;
64457;SDS011;58438;51.200;7.252;2022-11-20T00:23:24;19.35;;;8.95;;
64457;SDS011;58438;51.200;7.252;2022-11-20T00:26:12;20.33;;;8.38;;
64457;SDS011;58438;51.200;7.252;2022-11-20T00:29:00;22.42;;;8.38;;
64457;SDS011;58438;51.200;7.252;2022-11-20T00:31:48;19.52;;;9.02;;
64457;SDS011;58438;51.200;7.252;2022-11-20T00:34:36;22.08;;;9.60;;
64457;SDS011;58438;51.200;7.252;2022-11-20T00:37:23;24.08;;;9.85;;
64457;SDS011;58438;51.200;7.252;2022-11-20T00:40:11;18.10;;;8.35;;
64457;SDS011;58438;51.200;7.252;2022-11-20T00:42:58;21.63;;;9.65;;
64457;SDS011;58438;51.200;7.252;2022-11-20T00:45:46;22.95;;;9.43;;
64457;SDS011;58438;51.200;7.252;2022-11-20T00:48:34;19.58;;;9.57;;
64457;SDS011;58438;51.200;7.252;2022-11-20T00:51:23;22.92;;;9.70;;
64457;SDS011;58438;51.200;7.252;2022-11-20T00:54:10;20.30;;;9.15;;
64457;SDS011;58438;51.200;7.252;2022-11-20T00:56:57;21.38;;;10.27;;
64457;SDS011;58438;51.200;7.252;2022-11-20T00:59:45;25.20;;;10.80;;
64457;SDS011;58438;51.200;7.252;2022-11-20T01:02:32;22.80;;;11.02;;
64457;SDS011;58438;51.200;7.252;2022-11-20T01:05:21;25.05;;;11.63;;
64457;SDS011;58438;51.200;7.252;2022-11-20T01:08:08;27.75;;;11.43;;
64457;SDS011;58438;51.200;7.252;2022-11-20T01:10:58;19.38;;;9.52;;
64457;SDS011;58438;51.200;7.252;2022-11-20T01:13:47;27.40;;;10.27;;
64457;SDS011;58438;51.200;7.252;2022-11-20T01:16:37;19.88;;;10.57;;
64457;SDS011;58438;51.200;7.252;2022-11-20T01:19:27;24.85;;;9.38;;
64457;SDS011;58438;51.200;7.252;2022-11-20T01:22:18;28.27;;;11.02;;
64457;SDS011;58438;51.200;7.252;2022-11-20T01:25:08;28.27;;;11.00;;
64457;SDS011;58438;51.200;7.252;2022-11-20T01:27:57;26.17;;;10.88;;
64457;SDS011;58438;51.200;7.252;2022-11-20T01:30:46;22.67;;;10.52;;
64457;SDS011;58438;51.200;7.252;2022-11-20T01:33:36;20.70;;;10.52;;
64457;SDS011;58438;51.200;7.252;2022-11-20T01:36:27;24.63;;;10.95;;
64457;SDS011;58438;51.200;7.252;2022-11-20T01:39:19;23.15;;;10.40;;
64457;SDS011;58438;51.200;7.252;2022-11-20T01:42:10;25.02;;;11.13;;
64457;SDS011;58438;51.200;7.252;2022-11-20T01:48:24;27.80;;;11.77;;
64457;SDS011;58438;51.200;7.252;2022-11-20T01:51:17;27.60;;;11.18;;
64457;SDS011;58438;51.200;7.252;2022-11-20T01:54:08;25.27;;;12.02;;
64457;SDS011;58438;51.200;7.252;2022-11-20T01:56:59;25.77;;;11.38;;
64457;SDS011;58438;51.200;7.252;2022-11-20T01:59:50;26.42;;;11.10;;
64457;SDS011;58438;51.200;7.252;2022-11-20T02:02:42;28.15;;;11.20;;
64457;SDS011;58438;51.200;7.252;2022-11-20T02:05:33;27.42;;;10.48;;
64457;SDS011;58438;51.200;7.252;2022-11-20T02:08:24;25.02;;;11.27;;
64457;SDS011;58438;51.200;7.252;2022-11-20T02:11:14;29.08;;;11.88;;
64457;SDS011;58438;51.200;7.252;2022-11-20T02:14:03;23.00;;;11.50;;
64457;SDS011;58438;51.200;7.252;2022-11-20T02:16:49;29.88;;;11.85;;
64457;SDS011;58438;51.200;7.252;2022-11-20T02:19:36;32.28;;;13.10;;
64457;SDS011;58438;51.200;7.252;2022-11-20T02:22:25;27.63;;;12.02;;
64457;SDS011;58438;51.200;7.252;2022-11-20T02:25:16;27.15;;;11.40;;
64457;SDS011;58438;51.200;7.252;2022-11-20T02:28:04;28.38;;;12.95;;
64457;SDS011;58438;51.200;7.252;2022-11-20T02:30:51;32.38;;;12.18;;
64457;SDS011;58438;51.200;7.252;2022-11-20T02:33:39;27.33;;;11.32;;
64457;SDS011;58438;51.200;7.252;2022-11-20T02:36:26;26.45;;;11.60;;
64457;SDS011;58438;51.200;7.252;2022-11-20T02:39:14;26.55;;;11.43;;
64457;SDS011;58438;51.200;7.252;2022-11-20T02:42:04;32.50;;;13.27;;
64457;SDS011;58438;51.200;7.252;2022-11-20T02:44:52;24.42;;;10.82;;
64457;SDS011;58438;51.200;7.252;2022-11-20T02:47:39;30.98;;;12.20;;
64457;SDS011;58438;51.200;7.252;2022-11-20T02:50:26;26.40;;;11.50;;
64457;SDS011;58438;51.200;7.252;2022-11-20T02:53:14;28.15;;;13.27;;
64457;SDS011;58438;51.200;7.252;2022-11-20T02:56:01;26.58;;;11.18;;
64457;SDS011;58438;51.200;7.252;2022-11-20T02:58:50;25.42;;;11.48;;
64457;SDS011;58438;51.200;7.252;2022-11-20T03:01:37;29.45;;;11.52;;
64457;SDS011;58438;51.200;7.252;2022-11-20T03:04:24;29.50;;;13.27;;
64457;SDS011;58438;51.200;7.252;2022-11-20T03:07:12;26.02;;;10.77;;
64457;SDS011;58438;51.200;7.252;2022-11-20T03:09:59;24.17;;;11.18;;
64457;SDS011;58438;51.200;7.252;2022-11-20T03:12:46;25.35;;;11.68;;
64457;SDS011;58438;51.200;7.252;2022-11-20T03:15:36;27.50;;;12.52;;
64457;SDS011;58438;51.200;7.252;2022-11-20T03:18:23;22.65;;;10.68;;
64457;SDS011;58438;51.200;7.252;2022-11-20T03:21:11;26.92;;;12.68;;
64457;SDS011;58438;51.200;7.252;2022-11-20T03:23:58;31.70;;;13.63;;
64457;SDS011;58438;51.200;7.252;2022-11-20T03:26:46;22.55;;;10.52;;
64457;SDS011;58438;51.200;7.252;2022-11-20T03:29:34;29.98;;;12.55;;
64457;SDS011;58438;51.200;7.252;2022-11-20T03:32:23;27.40;;;11.23;;
64457;SDS011;58438;51.200;7.252;2022-11-20T03:35:10;29.42;;;12.73;;
64457;SDS011;58438;51.200;7.252;2022-11-20T03:37:57;26.58;;;11.77;;
64457;SDS011;58438;51.200;7.252;2022-11-20T03:40:45;25.50;;;9.88;;
64457;SDS011;58438;51.200;7.252;2022-11-20T03:43:32;25.20;;;10.85;;
64457;SDS011;58438;51.200;7.252;2022-11-20T03:46:20;26.90;;;10.07;;
64457;SDS011;58438;51.200;7.252;2022-11-20T03:49:09;23.23;;;10.32;;
64457;SDS011;58438;51.200;7.252;2022-11-20T03:51:56;26.08;;;11.85;;
64457;SDS011;58438;51.200;7.252;2022-11-20T03:54:44;23.45;;;11.68;;
64457;SDS011;58438;51.200;7.252;2022-11-20T03:57:31;27.33;;;11.70;;
64457;SDS011;58438;51.200;7.252;2022-11-20T04:00:18;32.47;;;12.82;;
64457;SDS011;58438;51.200;7.252;2022-11-20T04:03:06;30.50;;;12.15;;
64457;SDS011;58438;51.200;7.252;2022-11-20T04:05:54;26.95;;;13.85;;
64457;SDS011;58438;51.200;7.252;2022-11-20T04:08:42;29.17;;;11.77;;
64457;SDS011;58438;51.200;7.252;2022-11-20T04:11:34;27.40;;;11.82;;
64457;SDS011;58438;51.200;7.252;2022-11-20T04:14:22;27.38;;;11.60;;
64457;SDS011;58438;51.200;7.252;2022-11-20T04:17:10;28.67;;;12.23;;
64457;SDS011;58438;51.200;7.252;2022-11-20T04:19:57;31.23;;;12.90;;
64457;SDS011;58438;51.200;7.252;2022-11-20T04:22:45;30.10;;;12.93;;
64457;SDS011;58438;51.200;7.252;2022-11-20T04:25:33;27.98;;;12.38;;
64457;SDS011;58438;51.200;7.252;2022-11-20T04:28:20;30.90;;;13.38;;
64457;SDS011;58438;51.200;7.252;2022-11-20T04:31:08;29.27;;;13.07;;
64457;SDS011;58438;51.200;7.252;2022-11-20T04:33:58;31.10;;;11.95;;
64457;SDS011;58438;51.200;7.252;2022-11-20T04:36:46;29.48;;;11.63;;
64457;SDS011;58438;51.200;7.252;2022-11-20T04:39:34;32.20;;;14.05;;
64457;SDS011;58438;51.200;7.252;2022-11-20T04:42:22;31.63;;;12.77;;
64457;SDS011;58438;51.200;7.252;2022-11-20T04:45:15;27.23;;;12.07;;
64457;SDS011;58438;51.200;7.252;2022-11-20T04:48:02;33.47;;;12.38;;
64457;SDS011;58438;51.200;7.252;2022-11-20T04:50:49;29.52;;;12.10;;
64457;SDS011;58438;51.200;7.252;2022-11-20T04:53:37;31.80;;;12.65;;
64457;SDS011;58438;51.200;7.252;2022-11-20T04:56:26;34.60;;;12.88;;
64457;SDS011;58438;51.200;7.252;2022-11-20T04:59:13;27.40;;;12.43;;
64457;SDS011;58438;51.200;7.252;2022-11-20T05:02:00;32.05;;;11.82;;
64457;SDS011;58438;51.200;7.252;2022-11-20T05:04:47;30.05;;;13.30;;
64457;SDS011;58438;51.200;7.252;2022-11-20T05:07:35;30.52;;;12.38;;
64457;SDS011;58438;51.200;7.252;2022-11-20T05:10:22;32.28;;;13.85;;
64457;SDS011;58438;51.200;7.252;2022-11-20T05:13:11;30.60;;;12.38;;
64457;SDS011;58438;51.200;7.252;2022-11-20T05:16:01;28.10;;;13.18;;
64457;SDS011;58438;51.200;7.252;2022-11-20T05:18:48;32.45;;;14.25;;
64457;SDS011;58438;51.200;7.252;2022-11-20T05:21:36;30.83;;;12.88;;
64457;SDS011;58438;51.200;7.252;2022-11-20T05:24:23;24.98;;;11.82;;
64457;SDS011;58438;51.200;7.252;2022-11-20T05:27:10;30.98;;;13.30;;
64457;SDS011;58438;51.200;7.252;2022-11-20T05:29:59;25.38;;;13.95;;
64457;SDS011;58438;51.200;7.252;2022-11-20T05:32:47;32.75;;;12.32;;
64457;SDS011;58438;51.200;7.252;2022-11-20T05:35:34;37.42;;;14.23;;
64457;SDS011;58438;51.200;7.252;2022-11-20T05:38:21;25.75;;;12.00;;
64457;SDS011;58438;51.200;7.252;2022-11-20T05:41:09;31.10;;;13.60;;
64457;SDS011;58438;51.200;7.252;2022-11-20T05:43:57;31.45;;;12.45;;
64457;SDS011;58438;51.200;7.252;2022-11-20T05:46:46;26.60;;;12.52;;
64457;SDS011;58438;51.200;7.252;2022-11-20T05:49:33;27.38;;;11.55;;
64457;SDS011;58438;51.200;7.252;2022-11-20T05:52:20;32.92;;;13.80;;
64457;SDS011;58438;51.200;7.252;2022-11-20T05:55:08;30.17;;;12.93;;
64457;SDS011;58438;51.200;7.252;2022-11-20T05:57:55;27.10;;;10.60;;
64457;SDS011;58438;51.200;7.252;2022-11-20T06:00:42;23.15;;;12.10;;
64457;SDS011;58438;51.200;7.252;2022-11-20T06:03:31;26.60;;;12.35;;
64457;SDS011;58438;51.200;7.252;2022-11-20T06:06:18;33.03;;;12.00;;
64457;SDS011;58438;51.200;7.252;2022-11-20T06:09:06;24.33;;;11.80;;
64457;SDS011;58438;51.200;7.252;2022-11-20T06:11:53;32.08;;;11.75;;
64457;SDS011;58438;51.200;7.252;2022-11-20T06:14:41;26.92;;;12.85;;
64457;SDS011;58438;51.200;7.252;2022-11-20T06:17:28;25.42;;;12.55;;
64457;SDS011;58438;51.200;7.252;2022-11-20T06:20:17;26.63;;;12.25;;
64457;SDS011;58438;51.200;7.252;2022-11-20T06:23:04;28.50;;;11.75;;
64457;SDS011;58438;51.200;7.252;2022-11-20T06:25:51;31.52;;;11.45;;
64457;SDS011;58438;51.200;7.252;2022-11-20T06:28:39;30.77;;;12.68;;
64457;SDS011;58438;51.200;7.252;2022-11-20T06:31:26;30.13;;;12.07;;
64457;SDS011;58438;51.200;7.252;2022-11-20T06:34:13;23.35;;;11.73;;
64457;SDS011;58438;51.200;7.252;2022-11-20T06:37:02;23.40;;;11.48;;
64457;SDS011;58438;51.200;7.252;2022-11-20T06:39:49;30.13;;;12.95;;
64457;SDS011;58438;51.200;7.252;2022-11-20T06:42:37;33.35;;;11.98;;
64457;SDS011;58438;51.200;7.252;2022-11-20T06:45:24;29.83;;;11.00;;
64457;SDS011;58438;51.200;7.252;2022-11-20T06:48:11;25.88;;;10.10;;
64457;SDS011;58438;51.200;7.252;2022-11-20T06:50:59;22.75;;;10.23;;
64457;SDS011;58438;51.200;7.252;2022-11-20T06:53:47;29.35;;;12.00;;
64457;SDS011;58438;51.200;7.252;2022-11-20T06:56:35;24.10;;;10.20;;
64457;SDS011;58438;51.200;7.252;2022-11-20T06:59:22;22.58;;;10.93;;
64457;SDS011;58438;51.200;7.252;2022-11-20T07:02:09;25.77;;;10.73;;
64457;SDS011;58438;51.200;7.252;2022-11-20T07:04:56;27.63;;;11.85;;
64457;SDS011;58438;51.200;7.252;2022-11-20T07:07:44;27.05;;;11.25;;
64457;SDS011;58438;51.200;7.252;2022-11-20T07:10:32;22.60;;;10.18;;
64457;SDS011;58438;51.200;7.252;2022-11-20T07:13:19;23.08;;;9.50;;
64457;SDS011;58438;51.200;7.252;2022-11-20T07:16:07;28.10;;;11.43;;
64457;SDS011;58438;51.200;7.252;2022-11-20T07:18:55;24.60;;;9.55;;
64457;SDS011;58438;51.200;7.252;2022-11-20T07:21:42;23.95;;;11.00;;
64457;SDS011;58438;51.200;7.252;2022-11-20T07:24:29;26.50;;;11.13;;
64457;SDS011;58438;51.200;7.252;2022-11-20T07:27:18;27.70;;;11.02;;
64457;SDS011;58438;51.200;7.252;2022-11-20T07:30:06;26.60;;;10.70;;
64457;SDS011;58438;51.200;7.252;2022-11-20T07:32:54;25.25;;;10.55;;
64457;SDS011;58438;51.200;7.252;2022-11-20T07:35:41;19.52;;;9.40;;
64457;SDS011;58438;51.200;7.252;2022-11-20T07:38:29;24.48;;;11.65;;
64457;SDS011;58438;51.200;7.252;2022-11-20T07:41:16;22.67;;;9.32;;
64457;SDS011;58438;51.200;7.252;2022-11-20T07:44:05;18.73;;;8.65;;
64457;SDS011;58438;51.200;7.252;2022-11-20T07:46:52;17.67;;;8.90;;
64457;SDS011;58438;51.200;7.252;2022-11-20T07:49:39;19.45;;;9.32;;
64457;SDS011;58438;51.200;7.252;2022-11-20T07:52:27;21.17;;;9.30;;
64457;SDS011;58438;51.200;7.252;2022-11-20T07:55:14;26.15;;;10.43;;
64457;SDS011;58438;51.200;7.252;2022-11-20T07:58:01;21.40;;;10.38;;
64457;SDS011;58438;51.200;7.252;2022-11-20T08:00:50;20.90;;;9.57;;
64457;SDS011;58438;51.200;7.252;2022-11-20T08:03:37;17.38;;;9.07;;
64457;SDS011;58438;51.200;7.252;2022-11-20T08:06:24;16.17;;;8.13;;
64457;SDS011;58438;51.200;7.252;2022-11-20T08:09:12;18.33;;;8.40;;
64457;SDS011;58438;51.200;7.252;2022-11-20T08:12:00;15.55;;;7.45;;
64457;SDS011;58438;51.200;7.252;2022-11-20T08:18:02;14.10;;;6.47;;
64457;SDS011;58438;51.200;7.252;2022-11-20T08:21:10;14.68;;;6.43;;
64457;SDS011;58438;51.200;7.252;2022-11-20T08:23:57;14.57;;;7.10;;
64457;SDS011;58438;51.200;7.252;2022-11-20T08:26:44;16.13;;;7.85;;
64457;SDS011;58438;51.200;7.252;2022-11-20T08:29:32;17.50;;;7.43;;
64457;SDS011;58438;51.200;7.252;2022-11-20T08:32:19;13.40;;;7.45;;
64457;SDS011;58438;51.200;7.252;2022-11-20T08:35:08;21.35;;;8.68;;
64457;SDS011;58438;51.200;7.252;2022-11-20T08:37:55;18.45;;;8.13;;
64457;SDS011;58438;51.200;7.252;2022-11-20T08:40:42;14.02;;;7.65;;
64457;SDS011;58438;51.200;7.252;2022-11-20T08:43:52;15.63;;;7.65;;
64457;SDS011;58438;51.200;7.252;2022-11-20T08:46:40;11.32;;;6.20;;
64457;SDS011;58438;51.200;7.252;2022-11-20T08:49:28;14.02;;;6.80;;
64457;SDS011;58438;51.200;7.252;2022-11-20T08:52:17;15.05;;;6.43;;
64457;SDS011;58438;51.200;7.252;2022-11-20T08:55:05;15.98;;;7.38;;
64457;SDS011;58438;51.200;7.252;2022-11-20T08:57:52;11.73;;;6.07;;
64457;SDS011;58438;51.200;7.252;2022-11-20T09:00:40;15.20;;;7.68;;
64457;SDS011;58438;51.200;7.252;2022-11-20T09:03:27;15.10;;;7.00;;
64457;SDS011;58438;51.200;7.252;2022-11-20T09:06:18;13.52;;;6.30;;
64457;SDS011;58438;51.200;7.252;2022-11-20T09:09:06;12.48;;;7.07;;
64457;SDS011;58438;51.200;7.252;2022-11-20T09:11:54;14.32;;;6.97;;
64457;SDS011;58438;51.200;7.252;2022-11-20T09:14:41;14.50;;;6.93;;
64457;SDS011;58438;51.200;7.252;2022-11-20T09:17:29;15.82;;;7.45;;
64457;SDS011;58438;51.200;7.252;2022-11-20T09:20:16;16.05;;;7.78;;
64457;SDS011;58438;51.200;7.252;2022-11-20T09:23:03;14.57;;;7.70;;
64457;SDS011;58438;51.200;7.252;2022-11-20T09:25:52;19.35;;;8.57;;
64457;SDS011;58438;51.200;7.252;2022-11-20T09:28:44;17.50;;;8.02;;
64457;SDS011;58438;51.200;7.252;2022-11-20T09:31:32;14.73;;;7.90;;
64457;SDS011;58438;51.200;7.252;2022-11-20T09:34:20;16.38;;;8.23;;
64457;SDS011;58438;51.200;7.252;2022-11-20T09:37:07;15.60;;;7.50;;
64457;SDS011;58438;51.200;7.252;2022-11-20T09:39:54;16.33;;;8.52;;
64457;SDS011;58438;51.200;7.252;2022-11-20T09:42:44;17.25;;;8.40;;
64457;SDS011;58438;51.200;7.252;2022-11-20T09:45:40;13.15;;;6.88;;
64457;SDS011;58438;51.200;7.252;2022-11-20T09:48:48;14.60;;;7.97;;
64457;SDS011;58438;51.200;7.252;2022-11-20T09:51:42;15.88;;;7.22;;
64457;SDS011;58438;51.200;7.252;2022-11-20T09:54:33;18.25;;;7.82;;
64457;SDS011;58438;51.200;7.252;2022-11-20T09:57:23;16.48;;;7.50;;
64457;SDS011;58438;51.200;7.252;2022-11-20T10:00:14;14.70;;;6.85;;
64457;SDS011;58438;51.200;7.252;2022-11-20T10:03:03;20.48;;;8.38;;
64457;SDS011;58438;51.200;7.252;2022-11-20T10:05:53;13.90;;;7.13;;
64457;SDS011;58438;51.200;7.252;2022-11-20T10:08:41;11.13;;;6.75;;
64457;SDS011;58438;51.200;7.252;2022-11-20T10:11:32;15.48;;;6.93;;
64457;SDS011;58438;51.200;7.252;2022-11-20T10:14:23;14.82;;;6.65;;
64457;SDS011;58438;51.200;7.252;2022-11-20T10:17:16;16.23;;;7.10;;
64457;SDS011;58438;51.200;7.252;2022-11-20T10:20:12;18.63;;;7.65;;
64457;SDS011;58438;51.200;7.252;2022-11-20T10:23:13;15.13;;;7.82;;
64457;SDS011;58438;51.200;7.252;2022-11-20T10:26:16;15.48;;;7.80;;
64457;SDS011;58438;51.200;7.252;2022-11-20T10:29:07;13.38;;;7.57;;
64457;SDS011;58438;51.200;7.252;2022-11-20T10:32:00;15.15;;;7.45;;
64457;SDS011;58438;51.200;7.252;2022-11-20T10:34:50;20.13;;;8.07;;
64457;SDS011;58438;51.200;7.252;2022-11-20T10:37:40;15.52;;;7.15;;
64457;SDS011;58438;51.200;7.252;2022-11-20T10:40:30;17.40;;;9.57;;
64457;SDS011;58438;51.200;7.252;2022-11-20T10:43:24;24.63;;;10.40;;
64457;SDS011;58438;51.200;7.252;2022-11-20T10:46:13;22.55;;;8.77;;
64457;SDS011;58438;51.200;7.252;2022-11-20T10:49:01;20.15;;;8.93;;
64457;SDS011;58438;51.200;7.252;2022-11-20T10:51:56;19.60;;;8.65;;
64457;SDS011;58438;51.200;7.252;2022-11-20T10:54:49;19.45;;;8.90;;
64457;SDS011;58438;51.200;7.252;2022-11-20T10:57:45;21.98;;;9.20;;
64457;SDS011;58438;51.200;7.252;2022-11-20T11:00:33;17.55;;;9.80;;
64457;SDS011;58438;51.200;7.252;2022-11-20T11:03:22;23.08;;;9.02;;
64457;SDS011;58438;51.200;7.252;2022-11-20T11:06:13;20.25;;;9.20;;
64457;SDS011;58438;51.200;7.252;2022-11-20T11:09:09;23.05;;;9.65;;
64457;SDS011;58438;51.200;7.252;2022-11-20T11:11:58;19.55;;;8.68;;
64457;SDS011;58438;51.200;7.252;2022-11-20T11:14:52;22.92;;;9.45;;
64457;SDS011;58438;51.200;7.252;2022-11-20T11:17:45;20.25;;;9.70;;
64457;SDS011;58438;51.200;7.252;2022-11-20T11:20:32;24.15;;;11.75;;
64457;SDS011;58438;51.200;7.252;2022-11-20T11:23:29;26.60;;;11.13;;
64457;SDS011;58438;51.200;7.252;2022-11-20T11:26:20;25.38;;;9.88;;
64457;SDS011;58438;51.200;7.252;2022-11-20T11:29:15;21.48;;;10.07;;
64457;SDS011;58438;51.200;7.252;2022-11-20T11:32:04;26.70;;;9.95;;
64457;SDS011;58438;51.200;7.252;2022-11-20T11:34:59;24.13;;;10.70;;
64457;SDS011;58438;51.200;7.252;2022-11-20T11:37:46;26.52;;;10.90;;
64457;SDS011;58438;51.200;7.252;2022-11-20T11:40:35;23.35;;;10.95;;
64457;SDS011;58438;51.200;7.252;2022-11-20T11:43:25;23.80;;;10.88;;
64457;SDS011;58438;51.200;7.252;2022-11-20T11:46:31;25.58;;;11.10;;
64457;SDS011;58438;51.200;7.252;2022-11-20T11:49:19;29.33;;;11.23;;
64457;SDS011;58438;51.200;7.252;2022-11-20T11:52:08;24.13;;;11.23;;
64457;SDS011;58438;51.200;7.252;2022-11-20T11:54:58;23.00;;;10.43;;
64457;SDS011;58438;51.200;7.252;2022-11-20T11:57:49;24.30;;;12.85;;
64457;SDS011;58438;51.200;7.252;2022-11-20T12:00:41;24.40;;;11.98;;
64457;SDS011;58438;51.200;7.252;2022-11-20T12:03:34;29.00;;;11.70;;
64457;SDS011;58438;51.200;7.252;2022-11-20T12:06:22;28.45;;;12.90;;
64457;SDS011;58438;51.200;7.252;2022-11-20T12:09:10;24.63;;;12.18;;
64457;SDS011;58438;51.200;7.252;2022-11-20T12:11:58;27.92;;;12.07;;
64457;SDS011;58438;51.200;7.252;2022-11-20T12:14:49;32.72;;;13.50;;
64457;SDS011;58438;51.200;7.252;2022-11-20T12:17:39;26.65;;;12.60;;
64457;SDS011;58438;51.200;7.252;2022-11-20T12:20:28;30.08;;;12.50;;
64457;SDS011;58438;51.200;7.252;2022-11-20T12:23:17;27.80;;;11.35;;
64457;SDS011;58438;51.200;7.252;2022-11-20T12:26:06;28.27;;;12.65;;
64457;SDS011;58438;51.200;7.252;2022-11-20T12:28:58;26.80;;;13.95;;
64457;SDS011;58438;51.200;7.252;2022-11-20T12:31:51;26.52;;;12.38;;
64457;SDS011;58438;51.200;7.252;2022-11-20T12:34:46;29.83;;;12.70;;
64457;SDS011;58438;51.200;7.252;2022-11-20T12:40:26;25.92;;;11.13;;
64457;SDS011;58438;51.200;7.252;2022-11-20T12:43:15;30.60;;;12.48;;
64457;SDS011;58438;51.200;7.252;2022-11-20T12:46:25;30.02;;;12.27;;
64457;SDS011;58438;51.200;7.252;2022-11-20T12:49:19;29.50;;;12.48;;
64457;SDS011;58438;51.200;7.252;2022-11-20T12:52:16;27.60;;;12.65;;
64457;SDS011;58438;51.200;7.252;2022-11-20T12:55:16;25.33;;;12.02;;
64457;SDS011;58438;51.200;7.252;2022-11-20T12:58:10;30.65;;;12.38;;
64457;SDS011;58438;51.200;7.252;2022-11-20T13:01:02;29.20;;;12.05;;
64457;SDS011;58438;51.200;7.252;2022-11-20T13:03:50;32.28;;;13.55;;
64457;SDS011;58438;51.200;7.252;2022-11-20T13:06:39;28.55;;;13.07;;
64457;SDS011;58438;51.200;7.252;2022-11-20T13:09:29;25.50;;;11.23;;
64457;SDS011;58438;51.200;7.252;2022-11-20T13:12:18;30.52;;;11.85;;
64457;SDS011;58438;51.200;7.252;2022-11-20T13:15:08;28.33;;;12.05;;
64457;SDS011;58438;51.200;7.252;2022-11-20T13:18:01;31.30;;;13.02;;
64457;SDS011;58438;51.200;7.252;2022-11-20T13:20:49;25.58;;;12.35;;
64457;SDS011;58438;51.200;7.252;2022-11-20T13:23:37;31.80;;;12.48;;
64457;SDS011;58438;51.200;7.252;2022-11-20T13:26:26;30.10;;;13.45;;
64457;SDS011;58438;51.200;7.252;2022-11-20T13:29:16;39.30;;;17.35;;
64457;SDS011;58438;51.200;7.252;2022-11-20T13:32:04;34.55;;;15.10;;
64457;SDS011;58438;51.200;7.252;2022-11-20T13:34:53;33.63;;;15.65;;
64457;SDS011;58438;51.200;7.252;2022-11-20T13:37:41;31.33;;;13.02;;
64457;SDS011;58438;51.200;7.252;2022-11-20T13:40:28;33.47;;;13.30;;
64457;SDS011;58438;51.200;7.252;2022-11-20T13:43:20;40.45;;;14.07;;
64457;SDS011;58438;51.200;7.252;2022-11-20T13:46:08;29.35;;;13.25;;
64457;SDS011;58438;51.200;7.252;2022-11-20T13:49:05;29.55;;;12.77;;
64457;SDS011;58438;51.200;7.252;2022-11-20T13:51:56;34.83;;;14.93;;
64457;SDS011;58438;51.200;7.252;2022-11-20T13:54:55;30.48;;;13.60;;
64457;SDS011;58438;51.200;7.252;2022-11-20T13:57:53;33.08;;;14.55;;
64457;SDS011;58438;51.200;7.252;2022-11-20T14:00:46;33.83;;;14.10;;
64457;SDS011;58438;51.200;7.252;2022-11-20T14:03:35;36.65;;;16.05;;
64457;SDS011;58438;51.200;7.252;2022-11-20T14:06:43;36.58;;;14.88;;
64457;SDS011;58438;51.200;7.252;2022-11-20T14:09:31;35.53;;;14.48;;
64457;SDS011;58438;51.200;7.252;2022-11-20T14:12:19;40.20;;;15.05;;
64457;SDS011;58438;51.200;7.252;2022-11-20T14:18:14;43.78;;;18.00;;
64457;SDS011;58438;51.200;7.252;2022-11-20T14:21:01;45.53;;;18.00;;
64457;SDS011;58438;51.200;7.252;2022-11-20T14:23:51;48.17;;;17.02;;
64457;SDS011;58438;51.200;7.252;2022-11-20T14:26:41;44.45;;;16.92;;
64457;SDS011;58438;51.200;7.252;2022-11-20T14:29:29;48.33;;;18.33;;
64457;SDS011;58438;51.200;7.252;2022-11-20T14:32:19;42.33;;;16.70;;
64457;SDS011;58438;51.200;7.252;2022-11-20T14:35:13;44.15;;;16.77;;
64457;SDS011;58438;51.200;7.252;2022-11-20T14:38:04;47.25;;;17.42;;
64457;SDS011;58438;51.200;7.252;2022-11-20T14:41:05;43.13;;;16.35;;
64457;SDS011;58438;51.200;7.252;2022-11-20T14:43:53;47.83;;;18.15;;
64457;SDS011;58438;51.200;7.252;2022-11-20T14:46:41;44.83;;;17.17;;
64457;SDS011;58438;51.200;7.252;2022-11-20T14:49:29;39.45;;;16.48;;
64457;SDS011;58438;51.200;7.252;2022-11-20T14:52:20;43.67;;;16.85;;
64457;SDS011;58438;51.200;7.252;2022-11-20T14:55:07;39.53;;;16.60;;
64457;SDS011;58438;51.200;7.252;2022-11-20T14:57:55;44.33;;;17.30;;
64457;SDS011;58438;51.200;7.252;2022-11-20T15:00:42;41.58;;;17.65;;
64457;SDS011;58438;51.200;7.252;2022-11-20T15:03:40;42.03;;;16.02;;
64457;SDS011;58438;51.200;7.252;2022-11-20T15:06:28;37.63;;;15.35;;
64457;SDS011;58438;51.200;7.252;2022-11-20T15:09:18;39.47;;;14.98;;
64457;SDS011;58438;51.200;7.252;2022-11-20T15:12:05;39.17;;;15.60;;
64457;SDS011;58438;51.200;7.252;2022-11-20T15:14:53;40.63;;;16.60;;
64457;SDS011;58438;51.200;7.252;2022-11-20T15:17:40;37.95;;;15.23;;
64457;SDS011;58438;51.200;7.252;2022-11-20T15:20:28;39.08;;;15.93;;
64457;SDS011;58438;51.200;7.252;2022-11-20T15:23:18;42.80;;;15.77;;
64457;SDS011;58438;51.200;7.252;2022-11-20T15:26:07;34.45;;;14.73;;
64457;SDS011;58438;51.200;7.252;2022-11-20T15:28:57;37.35;;;15.57;;
64457;SDS011;58438;51.200;7.252;2022-11-20T15:31:44;35.95;;;15.77;;
64457;SDS011;58438;51.200;7.252;2022-11-20T15:34:31;36.22;;;13.90;;
64457;SDS011;58438;51.200;7.252;2022-11-20T15:37:19;31.55;;;14.43;;
64457;SDS011;58438;51.200;7.252;2022-11-20T15:40:11;34.63;;;12.88;;
64457;SDS011;58438;51.200;7.252;2022-11-20T15:43:00;35.70;;;15.27;;
64457;SDS011;58438;51.200;7.252;2022-11-20T15:45:59;31.95;;;13.38;;
64457;SDS011;58438;51.200;7.252;2022-11-20T15:48:48;39.15;;;13.88;;
64457;SDS011;58438;51.200;7.252;2022-11-20T15:51:36;28.85;;;13.88;;
64457;SDS011;58438;51.200;7.252;2022-11-20T15:54:24;36.20;;;13.90;;
64457;SDS011;58438;51.200;7.252;2022-11-20T15:57:11;31.48;;;13.43;;
64457;SDS011;58438;51.200;7.252;2022-11-20T16:00:01;36.90;;;15.10;;
64457;SDS011;58438;51.200;7.252;2022-11-20T16:02:48;33.45;;;13.77;;
64457;SDS011;58438;51.200;7.252;2022-11-20T16:05:35;34.47;;;14.15;;
64457;SDS011;58438;51.200;7.252;2022-11-20T16:08:23;35.50;;;14.93;;
64457;SDS011;58438;51.200;7.252;2022-11-20T16:11:10;36.53;;;15.80;;
64457;SDS011;58438;51.200;7.252;2022-11-20T16:13:59;34.42;;;14.98;;
64457;SDS011;58438;51.200;7.252;2022-11-20T16:17:04;32.78;;;14.45;;
64457;SDS011;58438;51.200;7.252;2022-11-20T16:19:52;38.85;;;15.38;;
64457;SDS011;58438;51.200;7.252;2022-11-20T16:22:39;31.10;;;14.40;;
64457;SDS011;58438;51.200;7.252;2022-11-20T16:25:27;32.42;;;13.95;;
64457;SDS011;58438;51.200;7.252;2022-11-20T16:28:14;33.88;;;14.20;;
64457;SDS011;58438;51.200;7.252;2022-11-20T16:31:07;33.60;;;14.73;;
64457;SDS011;58438;51.200;7.252;2022-11-20T16:33:57;31.08;;;13.50;;
64457;SDS011;58438;51.200;7.252;2022-11-20T16:36:44;35.22;;;14.43;;
64457;SDS011;58438;51.200;7.252;2022-11-20T16:39:31;30.90;;;13.60;;
64457;SDS011;58438;51.200;7.252;2022-11-20T16:42:18;32.00;;;12.95;;
64457;SDS011;58438;51.200;7.252;2022-11-20T16:45:06;31.02;;;12.57;;
64457;SDS011;58438;51.200;7.252;2022-11-20T16:47:53;29.67;;;13.27;;